SBRJ/SDU METAR and TAF weather

Enter ICAO airport designator
Station Type Date Time Source
SBRJ METAR 2020/01/27 17:00 UTC NOAA

SBRJ 271700Z 15010KT 9999 FEW025 30/23 Q1009


Station Type Date Time Source
SBRJ Decoded METAR 2020/01/27 17:00 UTC NOAA

Rio De Janeiro Aeroporto , Brazil (SBRJ) 22-54S 043-10W
Jan 27, 2020 - 12:00 PM EST / 2020.01.27 1700 UTC
Wind: from the SSE (150 degrees) at 12 MPH (10 KT):0
Visibility: greater than 7 mile(s):0
Sky conditions: mostly clear
Temperature: 86 F (30 C)
Heat index: 93.4 F (34.1 C):1
Dew Point: 73 F (23 C)
Relative Humidity: 66%
Pressure (altimeter): 29.80 in. Hg (1009 hPa)
ob: SBRJ 271700Z 15010KT 9999 FEW025 30/23 Q1009
cycle: 17

Station Type Date Time Source
SBRJ TAF 2020/01/27 12:30 UTC NOAA

TAF SBRJ 270930Z 2712/2724 35005KT CAVOK TN25/2712Z TX28/2718Z
BECMG 2714/2716 17015KT
BECMG 2718/2720 FEW025TCU
BECMG 2721/2723 CAVOK
RMK PHQ

Example: see airport list